Terminal Aerodrome Forecast
Issued by NWS

Home | Current Version | Previous Version | Text Only | Print | Product List | Glossary On
Versions: 1 2 3 4 5 6 7 8 9 10 11 12 13 14 15 16 17 18
000
FTAK31 PAJN 171900 AAA
TAFAKT
TAF AMD
PAKT 171913Z 1719/1818 14015G25KT P6SM -RA BKN020 OVC030
     FM180300 15010KT 6SM -RA BR BKN015 OVC025
     FM180900 16008KT P6SM -SHRA BKN025 OVC040
     FM181500 15007KT P6SM VCSH BKN035 OVC050
      AMD LTD TO CLD VIS AND WIND 1806/1815=

USA.gov is the U.S. government's official web portal to all federal, state and local government web resources and services.